Terminal Aerodrome Forecast
Issued by NWS Sterling, VA

Current Version | Previous Version | Graphics & Text | Print | Product List | Glossary On
Versions: 1 2 3 4 5 6 7 8 9 10 11 12 13 14 15 16 17 18 19 20 21 22
142
FTUS41 KLWX 202042 AAA
TAFDCA
TAF AMD
KDCA 202042Z 2021/2118 04004KT P6SM BKN090
     FM210000 13004KT P6SM OVC070
     FM210600 VRB03KT P6SM -SHRA OVC060
     FM211200 VRB03KT P6SM OVC035
     FM211500 34006KT P6SM OVC030=

USA.gov is the U.S. government's official web portal to all federal, state and local government web resources and services.